Terminal Aerodrome Forecast
Issued by NWS Austin/San Antonio, TX

Home | Current Version | Previous Version | Text Only | Print | Product List | Glossary On
Versions: 1 2 3 4 5 6 7 8 9 10 11 12 13 14 15 16 17
000
FTUS44 KEWX 251700
TAFSAT
TAF
KSAT 251729Z 2518/2624 18013G23KT P6SM FEW250
     FM260000 15007KT P6SM FEW250
     FM260800 16007KT P6SM OVC010
     FM261100 17003KT 3SM BR OVC005=

USA.gov is the U.S. government's official web portal to all federal, state and local government web resources and services.